logo
App data

Sam & Max 301: The Penal Zone

Wield psychic powers against fearsome foes in this epic comedy saga. In The Devil’s Playhouse, an otherworldly power for controlling matter and space calls to the strongest and strangest who might wield it -- intergalactic warlords and eldritch gods, under-dwellers and scholars of the arcane.
Store | Hub | SteamDB | Site
Developer: Telltale Games Publisher: Skunkape Games
Genre: Action, Adventure
Languages: English
Tags: Adventure (97), Point & Click (74), Comedy (51), Detective (43), Mystery (37), Episodic (34), Funny (28), Action (15), Singleplayer (13)
Category: Single-player
Release date:
N/A
Old userscore: 89% Owners: 0 .. 20,000
Followers: 1,221
Peak concurrent players yesterday: 1
Playtime total: 02:08 (average) 02:58 (median)

Steam Spy is still in beta, so expect major bugs.

Owners data:

Access restricted.

This feature is only available to users with special access rights. Sorry.

If you want to proceed, you need to register or log in first and then back Steam Spy on Patreon. Look for Indie or Pro pledge.

Don't forget to use the same email as on Steam Spy!

If you've recently backed Steam Spy on Patreon, please note, that it might take around 15 minutes for your access rights to sync. In most cases you'll need to re-login on Steam Spy too.

Audience in 2 weeks:

Access restricted.

This feature is only available to users with special access rights. Sorry.

If you want to proceed, you need to register or log in first and then back Steam Spy on Patreon. Look for Indie or Pro pledge.

Don't forget to use the same email as on Steam Spy!

If you've recently backed Steam Spy on Patreon, please note, that it might take around 15 minutes for your access rights to sync. In most cases you'll need to re-login on Steam Spy too.

Peak daily concurrent players:

CCU data courtesy of SteamDB. Used with permission.

Hourly concurrent players:

Followers over time

Access restricted.

This feature is only available to users with special access rights. Sorry.

If you want to proceed, you need to register or log in first and then back Steam Spy on Patreon. Look for Indie or Pro pledge.

Don't forget to use the same email as on Steam Spy!

If you've recently backed Steam Spy on Patreon, please note, that it might take around 15 minutes for your access rights to sync. In most cases you'll need to re-login on Steam Spy too.

Views for top 50 videos on YouTube for this game:

Games similar to this one:

# Game Release date
Price
Score rank
(Userscore / Metascore)
Owners
Players
Playtime (Median)
1 Down To One Jan 7, 2016 $0.99N/A (N/A)100,000 .. 200,0000%00:00 (00:00)
2 Rise of the Triad: Dark War Dec 21, 1994 $6.99N/A (N/A)0 .. 20,0000%00:00 (00:00)
3 Insanity's Blade Dec 5, 2014 $5.99N/A (N/A)20,000 .. 50,0000%00:00 (00:00)
4 Mega Man Legacy Collection Aug 24, 2015 $5.99N/A (N/A/85%)200,000 .. 500,0000%00:00 (00:00)
5 Raptor: Call of The Shadows - 2015 Edition Apr 1, 1994 $4.99N/A (N/A)50,000 .. 100,0000%00:00 (00:00)
6 Below Kryll Sep 7, 2015 $4.99N/A (N/A)0 .. 20,0000%00:00 (00:00)
7 TEMBO THE BADASS ELEPHANT Jul 21, 2015 $3.74N/A (N/A)20,000 .. 50,0000%00:00 (00:00)
8 METAL SLUG 2 Apr 14, 2016 $6.99N/A (N/A)100,000 .. 200,0000%00:00 (00:00)
9 Supercharged Robot VULKAISER Jun 4, 2015 $2.49N/A (N/A)20,000 .. 50,0000%00:00 (00:00)
10 SHOCK TROOPERS May 18, 2016 $7.99N/A (N/A)20,000 .. 50,0000%00:00 (00:00)
11 Rad Rodgers: World One Dec 1, 2016 $19.99N/A (N/A/72%)0 .. 20,0000%00:00 (00:00)
12 Grey Cubes May 15, 2015 N/AN/A (N/A)20,000 .. 50,0000%00:00 (00:00)
13 Cobalt Feb 2, 2016 $14.99N/A (N/A/69%)20,000 .. 50,0000%00:00 (00:00)
14 Kung Fury: Street Rage May 28, 2015 N/AN/A (N/A)100,000 .. 200,0000%00:00 (00:00)
15 Hocus Pocus Jun 1, 1994 $4.99N/A (N/A)0 .. 20,0000%00:00 (00:00)
16 Cruel Arena Aug 18, 2015 $0.99N/A (N/A)200,000 .. 500,0000%00:00 (00:00)
17 Stargunner Nov 19, 1996 FreeN/A (N/A)0 .. 20,0000%00:00 (00:00)
18 Drug Wars Mar 17, 2009 $4.99N/A (N/A/35%)0 .. 20,0000%00:00 (00:00)
19 Rocket Knight May 11, 2010 $14.99N/A (N/A/63%)0 .. 20,0000%00:00 (00:00)
20 Blacklight: Tango Down Jul 14, 2010 N/AN/A (N/A/65%)50,000 .. 100,0000%00:00 (00:00)
21 Prince of Persia Dec 10, 2008 $9.99N/A (N/A/82%)200,000 .. 500,0000%00:00 (00:00)
22 Twin Sector Sep 16, 2009 $4.99N/A (N/A)50,000 .. 100,0000%00:00 (00:00)
23 Watchmen: The End is Nigh Mar 4, 2009 $4.99N/A (N/A/61%)20,000 .. 50,0000%00:00 (00:00)
24 Booster Trooper Apr 16, 2010 $1.99N/A (N/A)50,000 .. 100,0000%00:00 (00:00)
25 Watchmen: The End is Nigh Part 2 Jul 29, 2009 $4.99N/A (N/A/44%)20,000 .. 50,0000%00:00 (00:00)
26 Dead Horde Jul 27, 2011 $5.99N/A (N/A)50,000 .. 100,0000%00:00 (00:00)
27 Bionic Commando Jul 28, 2009 $9.99N/A (N/A/69%)200,000 .. 500,0000%00:00 (00:00)
28 Iron Grip: Warlord Dec 5, 2008 N/AN/A (N/A/59%)100,000 .. 200,0000%00:00 (00:00)
29 Bionic Commando: Rearmed Aug 14, 2008 $9.99N/A (N/A/86%)200,000 .. 500,0000%00:00 (00:00)
30 Alien Shooter Sep 15, 2003 $4.99N/A (N/A)200,000 .. 500,0000%00:00 (00:00)
31 Alien Breed: Impact Jun 3, 2010 $9.99N/A (N/A/64%)200,000 .. 500,0000%00:00 (00:00)
32 Alien Shooter: Revisited Apr 15, 2009 $4.99N/A (N/A)200,000 .. 500,0000%00:00 (00:00)
33 Alien Breed 2: Assault Sep 22, 2010 $9.99N/A (N/A/63%)200,000 .. 500,0000%00:00 (00:00)
34 Legendary Dec 1, 2008 $1.99N/A (N/A/50%)200,000 .. 500,0000%00:00 (00:00)
35 Glass Wing Jun 24, 2015 FreeN/A (N/A)20,000 .. 50,0000%00:00 (00:00)
36 Deformers Apr 20, 2017 N/AN/A (N/A)20,000 .. 50,0000%00:00 (00:00)
37 Zanzarah: The Hidden Portal Aug 20, 2015 $0.79N/A (N/A)100,000 .. 200,0000%00:00 (00:00)
38 Scrap Garden - The Day Before Oct 7, 2016 FreeN/A (N/A)100,000 .. 200,0000%00:00 (00:00)
39 Umihara Kawase Shun Nov 24, 2015 $11.99N/A (N/A)0 .. 20,0000%00:00 (00:00)
40 THOTH Oct 7, 2016 $4.99N/A (N/A)50,000 .. 100,0000%00:00 (00:00)
41 Mighty Gunvolt Sep 29, 2015 $0.99N/A (N/A)20,000 .. 50,0000%00:00 (00:00)
42 Unbox: Newbie's Adventure Sep 5, 2016 $19.99N/A (N/A/68%)50,000 .. 100,0000%00:00 (00:00)
43 Mytheon Jul 13, 2010 $9.99N/A (N/A)0 .. 20,0000%00:00 (00:00)
44 Deus Ex: Breach Jan 24, 2017 FreeN/A (N/A)50,000 .. 100,0000%00:00 (00:00)
45 Fossil Echo Jul 8, 2016 $9.99N/A (N/A/61%)20,000 .. 50,0000%00:00 (00:00)
46 STAR WARS SHADOWS OF THE EMPIRE Sep 17, 1997 $5.99N/A (N/A)20,000 .. 50,0000%00:00 (00:00)
47 Zenodyne R May 29, 2016 $9.99N/A (N/A)0 .. 20,0000%00:00 (00:00)
48 PLANETS OF WAR Jun 30, 2017 $1.99N/A (N/A)20,000 .. 50,0000%00:00 (00:00)
49 Versus: Battle of the Gladiator Aug 26, 2016 N/AN/A (N/A)100,000 .. 200,0000%00:00 (00:00)
50 Yomawari: Night Alone Oct 25, 2016 $9.99N/A (N/A)50,000 .. 100,0000%00:00 (00:00)
51 DogFighter Jun 14, 2010 $0.99N/A (N/A)200,000 .. 500,0000%00:00 (00:00)
52 Zombie Shooter 2 Sep 23, 2009 $9.99N/A (N/A)100,000 .. 200,0000%00:00 (00:00)
53 Wasteland Angel Sep 1, 2011 $9.99N/A (N/A)20,000 .. 50,0000%00:00 (00:00)
54 SEGA Mega Drive and Genesis Classics Jun 1, 2010 $30.34N/A (N/A)1,000,000 .. 2,000,0000.98%00:11 (00:10)
55 Plain Sight Apr 5, 2010 $4.99N/A (N/A/76%)50,000 .. 100,0000%00:00 (00:00)
56 Foreign Legion: Buckets of Blood Aug 4, 2009 $3.99N/A (N/A)100,000 .. 200,0000%00:00 (00:00)
57 NyxQuest: Kindred Spirits Sep 27, 2010 $2.99N/A (N/A)20,000 .. 50,0000%00:00 (00:00)
58 MDK May 1, 1997 $9.99N/A (N/A)20,000 .. 50,0000%00:00 (00:00)
59 The First Templar - Steam Special Edition May 12, 2011 $9.99N/A (N/A/57%)100,000 .. 200,0000%00:00 (00:00)
60 Painkiller: Resurrection Oct 27, 2009 $9.99N/A (N/A/38%)100,000 .. 200,0000%00:00 (00:00)
61 Who's That Flying?! Jan 31, 2011 $5.99N/A (N/A/76%)20,000 .. 50,0000%00:00 (00:00)
62 AquaNox Nov 30, 2001 $4.99N/A (N/A/67%)100,000 .. 200,0000%00:00 (00:00)
63 Painkiller Redemption Feb 25, 2011 $4.99N/A (N/A/43%)200,000 .. 500,0000%00:00 (00:00)
64 AquaNox 2: Revelation Aug 19, 2003 $4.99N/A (N/A/59%)100,000 .. 200,0000%00:00 (00:00)
65 Xotic Sep 16, 2011 $9.99N/A (N/A/67%)50,000 .. 100,0000%00:00 (00:00)
66 Chaser Aug 22, 2003 $4.99N/A (N/A/66%)100,000 .. 200,0000%00:00 (00:00)
67 Zombie Shooter Dec 29, 2007 $4.99N/A (N/A)100,000 .. 200,0000%00:00 (00:00)
68 Sonic the Hedgehog 4 - Episode II May 15, 2012 $9.99N/A (N/A/54%)100,000 .. 200,0000%00:00 (00:00)
69 Capsized Apr 29, 2011 $9.99N/A (N/A/80%)200,000 .. 500,0000%00:00 (00:00)
70 Painkiller: Recurring Evil Feb 29, 2012 $9.99N/A (N/A/38%)100,000 .. 200,0000%00:00 (00:00)
71 Garshasp: The Monster Slayer May 9, 2011 $4.99N/A (N/A/49%)50,000 .. 100,0000%00:00 (00:00)
72 Noitu Love 2: Devolution Apr 23, 2012 $4.99N/A (N/A/80%)50,000 .. 100,0000%00:00 (00:00)
73 Alien Zombie Megadeath Oct 18, 2011 $4.99N/A (N/A)20,000 .. 50,0000%00:00 (00:00)
74 Sacred Citadel Apr 16, 2013 $9.99N/A (N/A/61%)500,000 .. 1,000,0000%00:00 (00:00)
75 Bunch of Heroes Sep 21, 2011 $4.99N/A (N/A)100,000 .. 200,0000%00:00 (00:00)
76 Blades of Time Apr 20, 2012 $9.99N/A (N/A/63%)200,000 .. 500,0000%00:00 (00:00)
77 Serious Sam Double D XXL Aug 30, 2011 $9.99N/A (N/A)200,000 .. 500,0000%00:00 (00:00)
78 Primal Fears Jan 8, 2013 $9.99N/A (N/A)50,000 .. 100,0000%00:00 (00:00)
79 Global Ops: Commando Libya Oct 26, 2011 $4.99N/A (N/A/37%)50,000 .. 100,0000%00:00 (00:00)
80 Kung Fu Strike - The Warrior's Rise Jul 24, 2012 $9.99N/A (N/A)100,000 .. 200,0000%00:00 (00:00)
81 Choplifter HD Jan 11, 2012 N/AN/A (N/A/65%)50,000 .. 100,0000%00:00 (00:00)
82 Intrusion 2 Sep 11, 2012 $9.99N/A (N/A/80%)200,000 .. 500,0000%00:00 (00:00)
83 Scary Girl Apr 9, 2012 $6.99N/A (N/A)0 .. 20,0000%00:00 (00:00)
84 Shadow Harvest: Phantom Ops Apr 5, 2011 $9.99N/A (N/A/34%)20,000 .. 50,0000%00:00 (00:00)
85 Kill to Collect Apr 6, 2016 $9.99N/A (N/A/57%)20,000 .. 50,0000%00:00 (00:00)
86 iBomber Attack Nov 1, 2012 $5.99N/A (N/A)20,000 .. 50,0000%00:00 (00:00)
87 The Chaos Engine Aug 29, 2013 $9.99N/A (N/A/40%)100,000 .. 200,0000%00:00 (00:00)
88 NiGHTS Into Dreams Dec 17, 2012 $7.99N/A (N/A)200,000 .. 500,0000%00:00 (00:00)
89 Blood Omen 2: Legacy of Kain Mar 29, 2002 $6.99N/A (N/A)200,000 .. 500,0000%00:00 (00:00)
90 LocoCycle Feb 14, 2014 $9.99N/A (N/A)0 .. 20,0000%00:00 (00:00)
91 Disney Epic Mickey 2: The Power of Two Nov 18, 2012 $19.99N/A (N/A)20,000 .. 50,0000%00:00 (00:00)
92 Dragon's Lair Jun 19, 1983 $9.99N/A (N/A)50,000 .. 100,0000%00:00 (00:00)
93 Strike Vector Jan 28, 2014 N/AN/A (N/A/73%)100,000 .. 200,0000%00:00 (00:00)
94 Thunder Wolves May 15, 2013 $9.99N/A (N/A/69%)100,000 .. 200,0000%00:00 (00:00)
95 Shadow Man Mar 9, 1999 $4.99N/A (N/A)50,000 .. 100,0000%00:00 (00:00)
96 Strike Suit Infinity Apr 30, 2013 $6.99N/A (N/A/66%)100,000 .. 200,0000%00:00 (00:00)
97 YAIBA: NINJA GAIDEN Z Mar 21, 2014 $29.99N/A (N/A/49%)20,000 .. 50,0000%00:00 (00:00)
98 The Apogee Throwback Pack Jul 1, 2013 $9.99N/A (N/A)200,000 .. 500,0000%00:00 (00:00)
99 Tiny Barbarian DX Dec 3, 2013 $29.99N/A (N/A)20,000 .. 50,0000%00:00 (00:00)
100 Guncraft Aug 9, 2013 $14.99N/A (N/A/73%)50,000 .. 100,0000%00:00 (00:00)
101 Karateka Dec 3, 2012 $3.99N/A (N/A/48%)50,000 .. 100,0000%00:00 (00:00)
102 The Ship: Single Player Nov 20, 2006 $9.99N/A (N/A)200,000 .. 500,0000%00:00 (00:00)
103 Damnation May 22, 2009 $9.99N/A (N/A/41%)50,000 .. 100,0000%00:00 (00:00)
104 Alpha Prime Nov 7, 2007 $4.99N/A (N/A/59%)200,000 .. 500,0000%00:00 (00:00)
105 Unreal 2: The Awakening Feb 3, 2003 $14.99N/A (N/A/75%)200,000 .. 500,0000%00:00 (00:00)
106 Painkiller Overdose Oct 30, 2007 $4.99N/A (N/A/65%)100,000 .. 200,0000%00:00 (00:00)
107 Prince of Persia: Warrior Within Nov 30, 2004 $9.99N/A (N/A/83%)200,000 .. 500,0000%00:00 (00:00)
108 Judge Dredd: Dredd vs. Death Feb 28, 2005 $7.99N/A (N/A/55%)50,000 .. 100,0000%00:00 (00:00)
109 Prince of Persia: The Two Thrones Dec 7, 2005 $9.99N/A (N/A/85%)200,000 .. 500,0000%00:00 (00:00)
110 Project: Snowblind Feb 22, 2005 $5.99N/A (N/A/76%)100,000 .. 200,0000%00:00 (00:00)
111 Tom Clancy's Rainbow Six Vegas Dec 12, 2006 $9.99N/A (N/A/85%)100,000 .. 200,0000%00:00 (00:00)
112 Conflict: Denied Ops Feb 8, 2008 $5.99N/A (N/A/58%)100,000 .. 200,0000%00:00 (00:00)
113 Tom Clancy's Ghost Recon Desert Siege Mar 26, 2002 $4.99N/A (N/A/82%)20,000 .. 50,0000%00:00 (00:00)
114 QUAKE Mission Pack 1: Scourge of Armagon Feb 28, 1997 $2.99N/A (N/A)200,000 .. 500,0000%00:00 (00:00)
115 Tom Clancy's Rainbow Six Lockdown Feb 14, 2006 $9.99N/A (N/A/59%)50,000 .. 100,0000%00:00 (00:00)
116 Frontlines: Fuel of War Feb 27, 2008 $19.99N/A (N/A/73%)200,000 .. 500,0000%00:00 (00:00)
117 Rayman Raving Rabbids Mar 27, 2007 $9.99N/A (N/A/58%)50,000 .. 100,0000%00:00 (00:00)
118 Larva Mortus Mar 19, 2009 $4.99N/A (N/A/64%)100,000 .. 200,0000%00:00 (00:00)
119 Kraven Manor Sep 26, 2014 FreeN/A (N/A/58%)100,000 .. 200,0000%00:00 (00:00)
120 Aces Wild: Manic Brawling Action! Aug 8, 2013 $9.99N/A (N/A)50,000 .. 100,0000%00:00 (00:00)
121 Chernobyl Commando Mar 8, 2013 N/AN/A (N/A)50,000 .. 100,0000%00:00 (00:00)
122 Spider: Rite of the Shrouded Moon Aug 6, 2015 $9.99N/A (N/A)20,000 .. 50,0000%00:00 (00:00)
123 Manhunter Jan 29, 2013 N/AN/A (N/A)100,000 .. 200,0000%00:00 (00:00)
124 GIGANTIC ARMY Mar 6, 2014 $5.99N/A (N/A)50,000 .. 100,0000%00:00 (00:00)
125 The Way May 20, 2016 $14.99N/A (N/A/67%)100,000 .. 200,0000%00:00 (00:00)
126 Eterium Apr 15, 2014 $4.99N/A (N/A)20,000 .. 50,0000%00:00 (00:00)
127 OCEAN CITY RACING Aug 27, 2016 $1.99N/A (N/A)50,000 .. 100,0000%00:00 (00:00)
128 Explodemon Nov 3, 2011 $8.99N/A (N/A)20,000 .. 50,0000%00:00 (00:00)
129 Vertical Drop Heroes HD Jul 25, 2014 $6.99N/A (N/A/70%)100,000 .. 200,0000%00:00 (00:00)
130 Elliot Quest Nov 10, 2014 $9.99N/A (N/A)20,000 .. 50,0000%00:00 (00:00)
131 Bird Assassin Feb 8, 2011 $1.99N/A (N/A)100,000 .. 200,0000%00:00 (00:00)
132 Dark Raid Jun 3, 2014 $3.99N/A (N/A)0 .. 20,0000%00:00 (00:00)
133 Raiden IV: OverKill Sep 3, 2015 $2.24N/A (N/A)50,000 .. 100,0000%00:00 (00:00)
134 Putt-Putt Saves The Zoo Dec 31, 1995 $6.99N/A (N/A)20,000 .. 50,0000%00:00 (00:00)
135 Hot Tin Roof: The Cat That Wore A Fedora Feb 20, 2015 $14.99N/A (N/A/66%)50,000 .. 100,0000%00:00 (00:00)

Tags over time:

Access restricted.

This feature is only available to users with special access rights. Sorry.

If you want to proceed, you need to register or log in first and then back Steam Spy on Patreon. Look for Indie or Pro pledge.

Don't forget to use the same email as on Steam Spy!

If you've recently backed Steam Spy on Patreon, please note, that it might take around 15 minutes for your access rights to sync. In most cases you'll need to re-login on Steam Spy too.

Owners of this game also own:

Access restricted.

This feature is only available to users with special access rights. Sorry.

If you want to proceed, you need to register or log in first and then back Steam Spy on Patreon. Look for Indie or Pro pledge.

Don't forget to use the same email as on Steam Spy!

If you've recently backed Steam Spy on Patreon, please note, that it might take around 15 minutes for your access rights to sync. In most cases you'll need to re-login on Steam Spy too.

Playtime distribution:

Access restricted.

This feature is only available to users with special access rights. Sorry.

If you want to proceed, you need to register or log in first and then back Steam Spy on Patreon. Look for Indie or Pro pledge.

Don't forget to use the same email as on Steam Spy!

If you've recently backed Steam Spy on Patreon, please note, that it might take around 15 minutes for your access rights to sync. In most cases you'll need to re-login on Steam Spy too.

Playtime (2 weeks):

Access restricted.

This feature is only available to users with special access rights. Sorry.

If you want to proceed, you need to register or log in first and then back Steam Spy on Patreon. Look for Indie or Pro pledge.

Don't forget to use the same email as on Steam Spy!

If you've recently backed Steam Spy on Patreon, please note, that it might take around 15 minutes for your access rights to sync. In most cases you'll need to re-login on Steam Spy too.

User reviews:

Login required.

Please register or log in to see this information.